createdAt,value
2023-04-16T00:01:27.888Z,5.11
2023-04-16T00:03:55.474Z,4.82
2023-04-16T00:06:22.979Z,4.91
2023-04-16T00:08:50.346Z,4.95
2023-04-16T00:11:17.518Z,5.02
2023-04-16T00:13:44.457Z,4.88
2023-04-16T00:16:11.194Z,5.08
2023-04-16T00:18:37.860Z,4.99
2023-04-16T00:21:04.690Z,4.93
2023-04-16T00:23:31.485Z,4.89
2023-04-16T00:26:00.113Z,4.97
2023-04-16T00:28:29.900Z,5.00
2023-04-16T00:30:56.668Z,4.98
2023-04-16T00:33:23.691Z,5.16
2023-04-16T00:35:51.249Z,5.16
2023-04-16T00:38:17.992Z,5.18
2023-04-16T00:40:44.613Z,5.10
2023-04-16T00:43:11.280Z,5.21
2023-04-16T00:45:38.324Z,5.17
2023-04-16T00:48:05.944Z,5.14
2023-04-16T00:50:33.636Z,5.08
2023-04-16T00:53:01.696Z,4.93
2023-04-16T00:55:28.461Z,4.90
2023-04-16T00:57:55.137Z,5.14
2023-04-16T01:00:22.059Z,5.27
2023-04-16T01:02:48.805Z,5.24
2023-04-16T01:05:15.775Z,5.15
2023-04-16T01:07:42.508Z,5.26
2023-04-16T01:10:09.259Z,5.16
2023-04-16T01:12:35.913Z,5.15
2023-04-16T01:15:03.215Z,5.25
2023-04-16T01:17:29.934Z,5.24
2023-04-16T01:20:00.425Z,5.27
2023-04-16T01:22:30.050Z,5.07
2023-04-16T01:24:56.715Z,5.16
2023-04-16T01:27:23.372Z,5.04
2023-04-16T01:29:50.075Z,5.13
2023-04-16T01:32:16.756Z,5.14
2023-04-16T01:34:43.425Z,5.13
2023-04-16T01:37:10.145Z,5.15
2023-04-16T01:39:36.784Z,5.13
2023-04-16T01:42:03.503Z,5.06
2023-04-16T01:44:31.040Z,5.04
2023-04-16T01:46:57.796Z,5.10
2023-04-16T01:49:24.593Z,5.06
2023-04-16T01:51:51.671Z,5.12
2023-04-16T01:54:18.332Z,5.05
2023-04-16T01:56:45.079Z,5.09
2023-04-16T01:59:12.324Z,5.12
2023-04-16T02:01:39.390Z,5.03
2023-04-16T02:04:06.596Z,5.07
2023-04-16T02:06:33.248Z,5.02
2023-04-16T02:08:59.916Z,5.17
2023-04-16T02:11:26.588Z,5.11
2023-04-16T02:13:53.249Z,5.07
2023-04-16T02:16:19.872Z,5.03
2023-04-16T02:18:46.649Z,5.10
2023-04-16T02:21:13.894Z,5.14
2023-04-16T02:23:41.428Z,5.17
2023-04-16T02:26:08.174Z,5.10
2023-04-16T02:28:34.841Z,5.18
2023-04-16T02:31:01.523Z,5.22
2023-04-16T02:33:28.685Z,5.27
2023-04-16T02:35:55.489Z,5.14
2023-04-16T02:38:22.164Z,5.31
2023-04-16T02:40:48.917Z,5.18
2023-04-16T02:43:15.754Z,5.19
2023-04-16T02:45:42.460Z,5.11
2023-04-16T02:48:09.699Z,5.32
2023-04-16T02:50:36.400Z,5.29
2023-04-16T02:53:04.309Z,5.33
2023-04-16T02:55:31.070Z,5.20
2023-04-16T02:57:57.741Z,5.36
2023-04-16T03:00:24.388Z,5.36
2023-04-16T03:02:51.198Z,5.47
2023-04-16T03:05:18.081Z,5.55
2023-04-16T03:07:44.670Z,5.44
2023-04-16T03:10:12.001Z,5.46
2023-04-16T03:12:39.223Z,5.44
2023-04-16T03:15:06.364Z,5.44
2023-04-16T03:17:33.120Z,5.46
2023-04-16T03:19:59.860Z,5.28
2023-04-16T03:22:27.076Z,5.34
2023-04-16T03:24:53.856Z,5.35
2023-04-16T03:27:20.594Z,5.34
2023-04-16T03:29:47.240Z,5.43
2023-04-16T03:32:13.981Z,5.41
2023-04-16T03:34:40.903Z,5.42
2023-04-16T03:37:08.954Z,5.41
2023-04-16T03:39:35.595Z,5.35
2023-04-16T03:42:02.507Z,5.45
2023-04-16T03:44:29.823Z,5.32
2023-04-16T03:46:56.504Z,5.43
2023-04-16T03:49:23.393Z,5.42
2023-04-16T03:51:49.973Z,5.56
2023-04-16T03:54:16.764Z,5.43
2023-04-16T03:56:43.468Z,5.44
2023-04-16T03:59:10.472Z,5.50
2023-04-16T04:01:37.255Z,5.49
2023-04-16T04:04:04.132Z,5.48
2023-04-16T04:06:31.099Z,5.45
2023-04-16T04:08:59.051Z,5.31
2023-04-16T04:11:26.201Z,5.37
2023-04-16T04:13:52.841Z,5.38
2023-04-16T04:16:19.579Z,5.48
2023-04-16T04:18:46.441Z,5.47
2023-04-16T04:21:13.114Z,5.44
2023-04-16T04:23:41.577Z,5.45
2023-04-16T04:26:08.603Z,5.33
2023-04-16T04:28:36.086Z,5.33
2023-04-16T04:31:02.987Z,5.39
2023-04-16T04:33:29.616Z,5.39
2023-04-16T04:35:56.447Z,5.28
2023-04-16T04:38:25.351Z,5.38
2023-04-16T04:40:52.882Z,5.34
2023-04-16T04:43:22.641Z,5.36
2023-04-16T04:45:49.624Z,5.28
2023-04-16T04:48:16.654Z,5.23
2023-04-16T04:50:45.482Z,5.27
2023-04-16T04:53:14.671Z,5.35
2023-04-16T04:55:41.574Z,5.43
2023-04-16T04:58:08.639Z,5.33
2023-04-16T05:00:36.762Z,5.33
2023-04-16T05:03:06.133Z,5.40
2023-04-16T05:05:33.034Z,5.27
2023-04-16T05:07:59.737Z,5.30
2023-04-16T05:10:26.990Z,5.35
2023-04-16T05:12:53.638Z,5.49
2023-04-16T05:15:20.307Z,5.54
2023-04-16T05:17:46.990Z,5.43
2023-04-16T05:20:13.831Z,5.53
2023-04-16T05:22:40.492Z,5.58
2023-04-16T05:25:07.392Z,5.64
2023-04-16T05:27:34.010Z,5.64
2023-04-16T05:30:00.734Z,5.59
2023-04-16T05:32:27.881Z,5.49
2023-04-16T05:34:54.704Z,5.42
2023-04-16T05:37:21.361Z,5.58
2023-04-16T05:39:47.985Z,5.64
2023-04-16T05:42:14.632Z,5.66
2023-04-16T05:44:41.316Z,5.73
2023-04-16T05:47:09.423Z,5.64
2023-04-16T05:49:39.378Z,5.66
2023-04-16T05:52:06.194Z,5.80
2023-04-16T05:54:32.887Z,5.77
2023-04-16T05:57:01.084Z,5.71
2023-04-16T05:59:27.967Z,5.78
2023-04-16T06:01:54.651Z,5.85
2023-04-16T06:04:21.463Z,6.06
2023-04-16T06:06:48.203Z,6.04
2023-04-16T06:09:14.842Z,5.89
2023-04-16T06:11:41.674Z,6.02
2023-04-16T06:14:08.309Z,5.91
2023-04-16T06:16:34.969Z,5.76
2023-04-16T06:19:01.717Z,5.96
2023-04-16T06:21:28.940Z,6.05
2023-04-16T06:23:56.176Z,5.89
2023-04-16T06:26:22.894Z,5.93
2023-04-16T06:28:50.374Z,6.05
2023-04-16T06:31:17.306Z,6.14
2023-04-16T06:33:43.992Z,6.11
2023-04-16T06:36:11.577Z,5.90
2023-04-16T06:38:38.416Z,5.98
2023-04-16T06:41:05.178Z,5.98
2023-04-16T06:43:33.528Z,5.94
2023-04-16T06:46:00.561Z,5.89
2023-04-16T06:48:27.695Z,6.12
2023-04-16T06:50:56.034Z,6.28
2023-04-16T06:53:23.847Z,6.19
2023-04-16T06:55:51.961Z,6.29
2023-04-16T06:58:18.643Z,6.27
2023-04-16T07:00:45.517Z,6.09
2023-04-16T07:03:12.481Z,6.09
2023-04-16T07:05:39.354Z,5.92
2023-04-16T07:08:06.101Z,5.96
2023-04-16T07:10:32.711Z,5.93
2023-04-16T07:13:01.518Z,5.78
2023-04-16T07:15:28.941Z,6.01
2023-04-16T07:17:55.633Z,6.05
2023-04-16T07:20:22.547Z,6.20
2023-04-16T07:22:49.594Z,6.13
2023-04-16T07:25:16.281Z,6.14
2023-04-16T07:27:42.972Z,6.24
2023-04-16T07:30:09.918Z,6.26
2023-04-16T07:32:36.651Z,6.16
2023-04-16T07:35:03.914Z,6.28
2023-04-16T07:37:30.982Z,6.31
2023-04-16T07:39:57.875Z,6.28
2023-04-16T07:42:24.588Z,6.56
2023-04-16T07:44:51.229Z,6.48
2023-04-16T07:47:17.883Z,6.38
2023-04-16T07:49:44.602Z,6.73
2023-04-16T07:52:11.924Z,6.30
2023-04-16T07:54:38.533Z,6.26
2023-04-16T07:57:05.397Z,6.50
2023-04-16T07:59:32.142Z,6.14
2023-04-16T08:01:58.916Z,6.27
2023-04-16T08:04:26.566Z,6.30
2023-04-16T08:06:53.952Z,6.36
2023-04-16T08:09:21.712Z,6.53
2023-04-16T08:11:49.982Z,6.32
2023-04-16T08:14:17.377Z,6.70
2023-04-16T08:16:44.255Z,6.65
2023-04-16T08:19:11.115Z,6.67
2023-04-16T08:21:37.981Z,6.30
2023-04-16T08:24:06.101Z,6.44
2023-04-16T08:26:32.760Z,6.34
2023-04-16T08:28:59.415Z,6.52
2023-04-16T08:31:26.318Z,6.50
2023-04-16T08:33:53.415Z,6.64
2023-04-16T08:36:20.743Z,6.94
2023-04-16T08:38:47.383Z,6.61
2023-04-16T08:41:14.982Z,6.75
2023-04-16T08:43:44.999Z,6.60
2023-04-16T08:46:12.519Z,6.91
2023-04-16T08:48:43.010Z,6.93
2023-04-16T08:51:12.030Z,7.05
2023-04-16T08:54:08.545Z,6.40
2023-04-16T08:56:37.495Z,6.44
2023-04-16T08:59:07.597Z,6.73
2023-04-16T09:01:35.511Z,6.41
2023-04-16T09:04:03.072Z,6.65
2023-04-16T09:06:31.417Z,6.47
2023-04-16T09:08:59.581Z,6.49
2023-04-16T09:11:26.624Z,6.50
2023-04-16T09:13:53.639Z,6.51
2023-04-16T09:16:21.218Z,6.25
2023-04-16T09:18:47.980Z,6.23
2023-04-16T09:21:15.349Z,6.26
2023-04-16T09:23:42.068Z,6.27
2023-04-16T09:26:08.696Z,6.33
2023-04-16T09:28:43.313Z,6.63
2023-04-16T09:31:10.113Z,6.73
2023-04-16T09:33:36.880Z,6.69
2023-04-16T09:36:03.904Z,6.67
2023-04-16T09:38:50.690Z,6.58
2023-04-16T09:41:17.883Z,6.74
2023-04-16T09:44:01.879Z,6.48
2023-04-16T09:46:34.658Z,6.75
2023-04-16T09:49:19.567Z,6.51
2023-04-16T09:51:49.583Z,6.56
2023-04-16T09:54:16.421Z,6.64
2023-04-16T09:56:46.412Z,6.69
2023-04-16T09:59:23.331Z,6.85
2023-04-16T10:01:50.791Z,6.70
2023-04-16T10:04:17.678Z,6.56
2023-04-16T10:06:44.688Z,6.60
2023-04-16T10:09:11.599Z,6.66
2023-04-16T10:11:39.448Z,6.70
2023-04-16T10:14:06.258Z,6.56
2023-04-16T10:16:33.731Z,6.33
2023-04-16T10:19:00.517Z,6.28
2023-04-16T10:21:33.816Z,6.57
2023-04-16T10:24:01.730Z,6.91
2023-04-16T10:26:30.674Z,7.09
2023-04-16T10:28:58.890Z,6.82
2023-04-16T10:31:26.437Z,7.04
2023-04-16T10:33:53.772Z,6.84
2023-04-16T10:36:25.079Z,6.66
2023-04-16T10:38:53.085Z,6.86
2023-04-16T10:41:20.783Z,7.20
2023-04-16T10:43:49.865Z,7.52
2023-04-16T10:46:46.195Z,7.85
2023-04-16T10:49:15.864Z,7.37
2023-04-16T10:51:42.496Z,7.36
2023-04-16T10:54:09.276Z,7.13
2023-04-16T10:56:37.186Z,7.26
2023-04-16T10:59:17.476Z,7.19
2023-04-16T11:01:45.954Z,6.91
2023-04-16T11:04:21.937Z,6.92
2023-04-16T11:07:15.681Z,7.23
2023-04-16T11:10:13.286Z,7.11
2023-04-16T11:12:44.895Z,7.46
2023-04-16T11:15:15.680Z,7.28
2023-04-16T11:17:47.652Z,6.96
2023-04-16T11:20:22.568Z,7.09
2023-04-16T11:22:50.920Z,6.88
2023-04-16T11:25:25.935Z,7.26
2023-04-16T11:27:53.226Z,7.20
2023-04-16T11:30:32.288Z,7.37
2023-04-16T11:32:59.326Z,7.05
2023-04-16T11:35:26.226Z,7.22
2023-04-16T11:37:57.133Z,6.96
2023-04-16T11:40:24.679Z,7.39
2023-04-16T11:42:51.286Z,7.19
2023-04-16T11:45:21.142Z,7.43
2023-04-16T11:47:52.705Z,7.47
2023-04-16T11:50:23.161Z,7.19
2023-04-16T11:52:52.028Z,7.57
2023-04-16T11:55:19.677Z,7.36
2023-04-16T11:57:46.891Z,7.85
2023-04-16T12:00:14.712Z,8.02
2023-04-16T12:02:46.594Z,8.17
2023-04-16T12:05:33.769Z,7.89
2023-04-16T12:08:02.623Z,8.16
2023-04-16T12:10:30.287Z,8.09
2023-04-16T12:13:16.873Z,8.12
2023-04-16T12:15:53.914Z,8.03
2023-04-16T12:18:26.803Z,7.85
2023-04-16T12:20:53.670Z,8.26
2023-04-16T12:23:32.953Z,8.32
2023-04-16T12:26:10.455Z,8.22
2023-04-16T12:28:41.682Z,8.18
2023-04-16T12:31:10.626Z,8.47
2023-04-16T12:33:37.451Z,8.89
2023-04-16T12:36:20.196Z,8.88
2023-04-16T12:38:46.983Z,8.60
2023-04-16T12:41:13.633Z,8.70
2023-04-16T12:43:40.438Z,8.60
2023-04-16T12:46:07.201Z,9.13
2023-04-16T12:48:34.638Z,8.89
2023-04-16T12:51:01.850Z,9.14
2023-04-16T12:53:28.618Z,9.53
2023-04-16T12:55:55.519Z,9.78
2023-04-16T12:58:22.231Z,9.34
2023-04-16T13:00:49.078Z,9.77
2023-04-16T13:03:16.364Z,9.85
2023-04-16T13:05:43.086Z,9.99
2023-04-16T13:08:09.846Z,9.25
2023-04-16T13:10:36.610Z,9.04
2023-04-16T13:13:03.310Z,9.12
2023-04-16T13:15:30.016Z,8.56
2023-04-16T13:17:56.768Z,9.18
2023-04-16T13:20:24.623Z,9.63
2023-04-16T13:22:51.658Z,9.70
2023-04-16T13:25:18.553Z,9.55
2023-04-16T13:27:45.516Z,9.34
2023-04-16T13:30:12.601Z,9.26
2023-04-16T13:32:40.548Z,9.05
2023-04-16T13:35:07.572Z,8.56
2023-04-16T13:37:34.737Z,7.90
2023-04-16T13:40:01.395Z,7.73
2023-04-16T13:43:22.302Z,7.83
2023-04-16T13:45:49.049Z,7.44
2023-04-16T13:48:16.086Z,7.83
2023-04-16T13:50:42.731Z,7.76
2023-04-16T13:53:09.481Z,7.95
2023-04-16T13:55:36.132Z,7.89
2023-04-16T13:58:02.911Z,7.89
2023-04-16T14:00:29.811Z,8.07
2023-04-16T14:02:56.746Z,7.96
2023-04-16T14:05:25.794Z,8.18
2023-04-16T14:07:53.804Z,7.87
2023-04-16T14:10:20.953Z,7.98
2023-04-16T14:12:47.669Z,7.67
2023-04-16T14:15:14.942Z,7.70
2023-04-16T14:17:45.363Z,7.66
2023-04-16T14:20:13.709Z,7.80
2023-04-16T14:22:42.415Z,7.64
2023-04-16T14:25:09.097Z,7.81
2023-04-16T14:27:35.869Z,7.73
2023-04-16T14:30:02.508Z,7.50
2023-04-16T14:32:29.194Z,7.76
2023-04-16T14:34:56.193Z,7.77
2023-04-16T14:37:22.832Z,7.58
2023-04-16T14:39:50.449Z,7.71
2023-04-16T14:42:17.144Z,7.42
2023-04-16T14:44:43.829Z,7.65
2023-04-16T14:47:10.659Z,7.72
2023-04-16T14:49:37.345Z,7.52
2023-04-16T14:52:05.726Z,7.54
2023-04-16T14:54:33.309Z,7.58
2023-04-16T14:57:00.124Z,7.42
2023-04-16T14:59:26.775Z,7.16
2023-04-16T15:01:55.536Z,7.43
2023-04-16T15:04:22.418Z,7.59
2023-04-16T15:06:49.891Z,7.36
2023-04-16T15:09:16.621Z,7.36
2023-04-16T15:11:43.290Z,7.33
2023-04-16T15:14:10.175Z,7.21
2023-04-16T15:16:37.215Z,7.07
2023-04-16T15:19:05.172Z,7.05
2023-04-16T15:21:32.956Z,7.05
2023-04-16T15:23:59.709Z,7.31
2023-04-16T15:26:26.531Z,7.28
2023-04-16T15:28:53.229Z,7.29
2023-04-16T15:31:20.904Z,7.35
2023-04-16T15:33:48.605Z,6.97
2023-04-16T15:36:16.123Z,6.85
2023-04-16T15:38:42.824Z,6.84
2023-04-16T15:41:10.583Z,6.76
2023-04-16T15:43:37.258Z,7.02
2023-04-16T15:46:04.000Z,7.25
2023-04-16T15:48:30.801Z,7.31
2023-04-16T15:50:57.425Z,7.13
2023-04-16T15:53:24.144Z,6.96
2023-04-16T15:55:52.847Z,7.06
2023-04-16T15:58:20.931Z,7.08
2023-04-16T16:00:49.968Z,6.97
2023-04-16T16:03:20.656Z,7.02
2023-04-16T16:05:50.703Z,6.80
2023-04-16T16:08:17.441Z,6.98
2023-04-16T16:10:44.141Z,6.80
2023-04-16T16:13:13.253Z,6.82
2023-04-16T16:15:43.351Z,6.53
2023-04-16T16:18:10.159Z,6.84
2023-04-16T16:20:37.136Z,6.97
2023-04-16T16:23:03.918Z,6.90
2023-04-16T16:25:30.613Z,6.91
2023-04-16T16:27:58.881Z,6.65
2023-04-16T16:30:26.457Z,6.59
2023-04-16T16:32:54.052Z,6.55
2023-04-16T16:35:20.954Z,6.66
2023-04-16T16:37:47.787Z,6.71
2023-04-16T16:40:14.752Z,6.85
2023-04-16T16:42:41.529Z,6.89
2023-04-16T16:45:08.901Z,6.78
2023-04-16T16:47:35.610Z,6.94
2023-04-16T16:50:03.171Z,6.74
2023-04-16T16:52:30.152Z,6.69
2023-04-16T16:54:56.884Z,6.74
2023-04-16T16:57:26.394Z,6.72
2023-04-16T16:59:54.494Z,6.73
2023-04-16T17:02:21.743Z,6.65
2023-04-16T17:04:48.363Z,6.70
2023-04-16T17:07:15.001Z,6.69
2023-04-16T17:09:41.985Z,6.70
2023-04-16T17:12:08.685Z,6.70
2023-04-16T17:14:35.655Z,6.64
2023-04-16T17:17:02.494Z,6.53
2023-04-16T17:19:29.396Z,6.52
2023-04-16T17:21:56.372Z,6.67
2023-04-16T17:24:23.238Z,6.66
2023-04-16T17:26:50.791Z,6.64
2023-04-16T17:29:17.698Z,6.43
2023-04-16T17:31:44.603Z,6.33
2023-04-16T17:34:11.642Z,6.29
2023-04-16T17:36:38.639Z,6.48
2023-04-16T17:39:05.446Z,6.49
2023-04-16T17:41:32.138Z,6.53
2023-04-16T17:43:58.827Z,6.34
2023-04-16T17:46:25.758Z,6.40
2023-04-16T17:48:52.553Z,6.39
2023-04-16T17:51:19.254Z,6.45
2023-04-16T17:53:46.311Z,6.42
2023-04-16T17:56:13.923Z,6.45
2023-04-16T17:58:40.748Z,6.42
2023-04-16T18:01:07.512Z,6.35
2023-04-16T18:03:34.878Z,6.43
2023-04-16T18:06:01.784Z,6.43
2023-04-16T18:08:28.842Z,6.28
2023-04-16T18:10:56.591Z,6.39
2023-04-16T18:13:24.294Z,6.42
2023-04-16T18:15:51.610Z,6.29
2023-04-16T18:18:18.622Z,6.05
2023-04-16T18:20:45.382Z,6.12
2023-04-16T18:23:12.044Z,5.95
2023-04-16T18:28:06.310Z,6.23
2023-04-16T18:30:33.772Z,6.34
2023-04-16T18:33:30.719Z,6.22
2023-04-16T18:35:47.292Z,6.21
2023-04-16T18:38:14.065Z,6.05
2023-04-16T18:40:41.634Z,5.91
2023-04-16T18:43:08.286Z,5.97
2023-04-16T18:45:34.952Z,6.12
2023-04-16T18:48:03.597Z,6.18
2023-04-16T18:50:30.269Z,6.23
2023-04-16T18:52:56.965Z,6.29
2023-04-16T18:55:23.774Z,6.25
2023-04-16T18:57:50.546Z,6.22
2023-04-16T19:00:17.473Z,6.07
2023-04-16T19:02:44.387Z,6.15
2023-04-16T19:05:11.343Z,6.16
2023-04-16T19:07:38.558Z,6.15
2023-04-16T19:10:05.859Z,6.07
2023-04-16T19:12:32.599Z,6.04
2023-04-16T19:14:59.515Z,5.94
2023-04-16T19:17:26.667Z,6.15
2023-04-16T19:19:53.555Z,6.14
2023-04-16T19:22:20.563Z,5.99
2023-04-16T19:24:47.240Z,6.12
2023-04-16T19:27:13.977Z,6.08
2023-04-16T19:29:42.756Z,6.15
2023-04-16T19:32:09.507Z,6.14
2023-04-16T19:34:36.372Z,5.96
2023-04-16T19:37:03.092Z,6.06
2023-04-16T19:39:29.799Z,6.04
2023-04-16T19:41:56.494Z,6.07
2023-04-16T19:44:23.348Z,6.10
2023-04-16T19:46:50.077Z,5.86
2023-04-16T19:49:16.765Z,6.00
2023-04-16T19:51:43.359Z,6.03
2023-04-16T19:54:10.012Z,6.04
2023-04-16T19:56:36.666Z,6.11
2023-04-16T19:59:03.461Z,6.13
2023-04-16T20:01:33.185Z,6.22
2023-04-16T20:04:00.076Z,6.14
2023-04-16T20:06:26.847Z,6.17
2023-04-16T20:08:53.528Z,6.23
2023-04-16T20:11:20.463Z,6.11
2023-04-16T20:13:47.811Z,6.11
2023-04-16T20:16:14.910Z,6.07
2023-04-16T20:18:42.544Z,6.02
2023-04-16T20:21:09.755Z,6.08
2023-04-16T20:23:36.414Z,6.07
2023-04-16T20:26:04.432Z,6.04
2023-04-16T20:28:31.149Z,6.07
2023-04-16T20:30:58.026Z,6.09
2023-04-16T20:33:24.703Z,6.06
2023-04-16T20:35:52.292Z,6.05
2023-04-16T20:38:23.857Z,6.07
2023-04-16T20:41:06.177Z,6.00
2023-04-16T20:43:38.152Z,6.07
2023-04-16T20:46:05.275Z,6.15
2023-04-16T20:48:32.196Z,6.08
2023-04-16T20:51:03.669Z,6.16
2023-04-16T20:53:32.466Z,6.14
2023-04-16T20:56:02.815Z,6.12
2023-04-16T20:58:29.986Z,6.16
2023-04-16T21:00:57.636Z,6.09
2023-04-16T21:03:24.896Z,6.15
2023-04-16T21:05:53.489Z,6.03
2023-04-16T21:08:23.699Z,6.11
2023-04-16T21:10:51.220Z,6.16
2023-04-16T21:13:18.643Z,6.11
2023-04-16T21:15:46.017Z,6.16
2023-04-16T21:18:12.966Z,5.98
2023-04-16T21:20:39.850Z,6.08
2023-04-16T21:23:06.709Z,6.09
2023-04-16T21:25:33.622Z,6.03
2023-04-16T21:28:00.496Z,6.06
2023-04-16T21:30:27.256Z,5.97
2023-04-16T21:32:53.951Z,6.00
2023-04-16T21:35:20.730Z,5.94
2023-04-16T21:37:47.367Z,5.96
2023-04-16T21:40:14.233Z,5.98
2023-04-16T21:42:42.364Z,5.93
2023-04-16T21:45:10.395Z,5.96
2023-04-16T21:47:38.207Z,6.00
2023-04-16T21:50:05.866Z,5.96
2023-04-16T21:52:33.051Z,5.95
2023-04-16T21:55:00.340Z,5.93
2023-04-16T21:57:27.183Z,5.89
2023-04-16T21:59:53.833Z,6.00
2023-04-16T22:02:20.635Z,6.03
2023-04-16T22:04:48.576Z,6.04
2023-04-16T22:07:16.835Z,6.04
2023-04-16T22:09:43.742Z,5.92
2023-04-16T22:12:10.538Z,5.92
2023-04-16T22:14:42.068Z,5.86
2023-04-16T22:17:13.048Z,5.96
2023-04-16T22:19:39.707Z,5.93
2023-04-16T22:22:06.338Z,6.05
2023-04-16T22:24:33.089Z,6.05
2023-04-16T22:26:59.782Z,5.89
2023-04-16T22:29:26.456Z,5.94
2023-04-16T22:31:53.298Z,5.96
2023-04-16T22:34:20.010Z,5.93
2023-04-16T22:36:47.550Z,6.03
2023-04-16T22:39:14.627Z,6.14
2023-04-16T22:41:41.527Z,6.18
2023-04-16T22:44:08.191Z,6.18
2023-04-16T22:46:35.031Z,6.00
2023-04-16T22:49:01.809Z,6.06
2023-04-16T22:51:29.372Z,6.10
2023-04-16T22:53:56.422Z,6.16
2023-04-16T22:56:28.499Z,6.15
2023-04-16T22:58:55.449Z,6.11
2023-04-16T23:01:22.307Z,6.17
2023-04-16T23:03:49.115Z,6.17
2023-04-16T23:06:15.893Z,6.26
2023-04-16T23:08:42.566Z,6.17
2023-04-16T23:11:09.239Z,6.25
2023-04-16T23:13:36.274Z,6.33
2023-04-16T23:16:03.019Z,6.29
2023-04-16T23:18:29.742Z,6.21
2023-04-16T23:20:56.384Z,6.25
2023-04-16T23:23:23.085Z,6.28
2023-04-16T23:25:53.339Z,6.23
2023-04-16T23:28:20.581Z,6.30
2023-04-16T23:30:47.432Z,6.35
2023-04-16T23:33:14.080Z,6.24
2023-04-16T23:35:40.955Z,6.32
2023-04-16T23:38:07.570Z,6.33
2023-04-16T23:40:34.202Z,6.34
2023-04-16T23:43:00.884Z,6.33
2023-04-16T23:45:27.571Z,6.38
2023-04-16T23:47:54.316Z,6.45
2023-04-16T23:50:20.960Z,6.45
2023-04-16T23:52:47.565Z,6.27
2023-04-16T23:55:14.227Z,6.16
2023-04-16T23:57:40.851Z,6.10
